Time;durP1;ratioP1;P1;durP2;ratioP2;P2;SDS_P1;SDS_P2;PMS_P1;PMS_P2;Temp;Humidity;BMP_temperature;BMP_pressure;BME280_temperature;BME280_humidity;BME280_pressure;Samples;Min_cycle;Max_cycle;Signal;HPM_P1;HPM_P2
2022/04/20 00:01:47;;;;;;;5.00;3.77;;;10.10;54.80;;;;;;6097282;23;20412;-87
2022/04/20 00:04:14;;;;;;;5.43;5.00;;;10.10;55.30;;;;;;6098286;23;20413;-87
2022/04/20 00:06:40;;;;;;;6.90;4.93;;;10.10;55.90;;;;;;6109779;23;21117;-88
2022/04/20 00:09:08;;;;;;;4.60;4.10;;;10.00;56.30;;;;;;6111395;23;20415;-87
2022/04/20 00:11:35;;;;;;;5.13;4.73;;;10.00;56.60;;;;;;6119315;23;20412;-87
2022/04/20 00:14:02;;;;;;;5.17;4.77;;;10.00;57.00;;;;;;6113019;23;20411;-87
2022/04/20 00:16:28;;;;;;;4.57;4.17;;;9.90;58.10;;;;;;6107198;23;20804;-87
2022/04/20 00:18:55;;;;;;;6.00;5.40;;;9.80;58.50;;;;;;6099522;23;20408;-87
2022/04/20 00:21:22;;;;;;;5.60;5.00;;;9.90;58.90;;;;;;6100126;23;20496;-86
2022/04/20 00:23:49;;;;;;;8.70;5.80;;;9.90;59.00;;;;;;6113019;23;20412;-88
2022/04/20 00:26:17;;;;;;;5.20;4.73;;;9.90;59.30;;;;;;6103637;23;20425;-88
2022/04/20 00:28:44;;;;;;;8.13;5.50;;;9.80;59.60;;;;;;6100480;23;20416;-87
2022/04/20 00:31:11;;;;;;;6.03;5.43;;;9.80;60.00;;;;;;6120248;23;20452;-87
2022/04/20 00:33:38;;;;;;;5.63;4.87;;;9.70;60.30;;;;;;6118829;23;20452;-88
2022/04/20 00:36:05;;;;;;;6.00;5.40;;;9.70;60.50;;;;;;6101581;23;20437;-87
2022/04/20 00:38:32;;;;;;;5.43;4.97;;;9.70;60.80;;;;;;6102019;23;20419;-87
2022/04/20 00:40:59;;;;;;;5.87;5.23;;;9.60;61.00;;;;;;6100759;23;20416;-87
2022/04/20 00:43:28;;;;;;;6.67;6.07;;;9.60;61.20;;;;;;6098818;23;20476;-87
2022/04/20 00:45:57;;;;;;;7.90;5.13;;;9.60;61.20;;;;;;6099000;23;20520;-88
2022/04/20 00:48:24;;;;;;;7.27;5.20;;;9.50;61.40;;;;;;6099423;23;20393;-88
2022/04/20 00:50:51;;;;;;;8.40;4.90;;;9.50;62.00;;;;;;6108206;23;20415;-88
2022/04/20 00:53:18;;;;;;;5.63;5.00;;;9.50;62.50;;;;;;6108559;23;20443;-88
2022/04/20 00:55:44;;;;;;;5.97;5.47;;;9.50;61.70;;;;;;6124446;23;20424;-86
2022/04/20 00:58:13;;;;;;;6.77;5.33;;;9.50;61.80;;;;;;6122380;23;20405;-87
2022/04/20 01:00:41;;;;;;;4.60;4.20;;;9.50;61.90;;;;;;6123014;23;20392;-87
2022/04/20 01:03:08;;;;;;;5.57;5.07;;;9.50;61.90;;;;;;6117101;23;20401;-87
2022/04/20 01:05:34;;;;;;;5.50;4.97;;;9.50;62.10;;;;;;6117646;23;20449;-87
2022/04/20 01:08:01;;;;;;;5.40;4.80;;;9.50;62.00;;;;;;6114528;23;20404;-87
2022/04/20 01:10:28;;;;;;;8.70;5.37;;;9.50;61.80;;;;;;6097541;23;20743;-88
2022/04/20 01:12:55;;;;;;;4.93;4.53;;;9.50;61.80;;;;;;6097987;23;20444;-88
2022/04/20 01:15:22;;;;;;;7.00;5.20;;;9.50;61.90;;;;;;6097141;23;20966;-88
2022/04/20 01:17:50;;;;;;;6.80;5.90;;;9.50;61.90;;;;;;6110082;23;20427;-87
2022/04/20 01:20:17;;;;;;;6.20;5.50;;;9.50;62.10;;;;;;6121789;23;20401;-88
2022/04/20 01:22:46;;;;;;;5.80;4.93;;;9.50;62.20;;;;;;6095590;23;20405;-87
2022/04/20 01:25:13;;;;;;;5.80;5.30;;;9.40;62.20;;;;;;6097570;23;20436;-88
2022/04/20 01:27:40;;;;;;;5.53;5.10;;;9.30;62.40;;;;;;6097819;23;20476;-87
2022/04/20 01:30:08;;;;;;;4.40;4.10;;;9.30;62.80;;;;;;6096219;23;20419;-88
2022/04/20 01:32:35;;;;;;;5.63;4.70;;;9.30;63.00;;;;;;6099660;23;20431;-87
2022/04/20 01:35:02;;;;;;;6.43;5.90;;;9.30;63.10;;;;;;6118859;23;20527;-88
2022/04/20 01:37:30;;;;;;;6.60;4.93;;;9.20;63.40;;;;;;6114178;23;20404;-88
2022/04/20 01:39:58;;;;;;;4.80;4.50;;;9.20;63.40;;;;;;6111707;23;20419;-88
2022/04/20 01:42:25;;;;;;;5.80;5.20;;;9.20;63.40;;;;;;6114137;23;20480;-87
2022/04/20 01:44:51;;;;;;;6.70;5.07;;;9.20;63.40;;;;;;6098807;23;20413;-88
2022/04/20 01:47:18;;;;;;;6.07;5.03;;;9.20;63.50;;;;;;6099652;23;20412;-88
2022/04/20 01:49:45;;;;;;;6.43;5.10;;;9.10;63.60;;;;;;6099914;23;20749;-90
2022/04/20 01:52:11;;;;;;;11.07;5.17;;;9.10;63.70;;;;;;6098619;23;20798;-89
2022/04/20 01:54:37;;;;;;;5.77;4.73;;;9.10;64.00;;;;;;6107631;23;20400;-89
2022/04/20 01:57:05;;;;;;;5.40;4.90;;;9.10;64.10;;;;;;6116023;23;20187;-89
2022/04/20 01:59:32;;;;;;;5.67;5.10;;;9.00;64.20;;;;;;6113527;23;20394;-89
2022/04/20 02:04:43;;;;;;;5.10;4.60;;;8.80;64.70;;;;;;6122634;23;20384;-89
2022/04/20 02:07:10;;;;;;;5.53;5.03;;;8.70;65.40;;;;;;6097644;23;20403;-88
2022/04/20 02:09:37;;;;;;;5.70;5.20;;;8.60;65.80;;;;;;6098373;23;20492;-89
2022/04/20 02:12:06;;;;;;;6.40;5.30;;;8.50;66.40;;;;;;6112934;23;20401;-91
2022/04/20 02:14:33;;;;;;;6.97;6.37;;;8.50;67.00;;;;;;6120850;23;20401;-88
2022/04/20 02:17:00;;;;;;;6.20;5.60;;;8.60;67.20;;;;;;6101627;23;20401;-89
2022/04/20 02:19:27;;;;;;;6.40;5.80;;;8.50;67.20;;;;;;6104818;23;20429;-89
2022/04/20 02:21:53;;;;;;;6.30;5.70;;;8.50;67.60;;;;;;6103690;23;20903;-89
2022/04/20 02:24:20;;;;;;;7.60;5.80;;;8.50;67.80;;;;;;6100117;23;20409;-89
2022/04/20 02:26:47;;;;;;;6.00;5.50;;;8.50;67.90;;;;;;6099045;23;20403;-89
2022/04/20 02:29:15;;;;;;;6.93;6.30;;;8.40;68.10;;;;;;6097410;23;20411;-90
2022/04/20 02:31:42;;;;;;;10.20;5.23;;;8.40;68.50;;;;;;6097198;23;20412;-90
2022/04/20 02:34:08;;;;;;;6.63;5.43;;;8.40;68.50;;;;;;6096380;23;20449;-89
2022/04/20 02:36:36;;;;;;;5.97;5.53;;;8.30;68.80;;;;;;6098027;23;20439;-89
2022/04/20 02:39:04;;;;;;;5.40;5.00;;;8.30;69.00;;;;;;6098329;23;20408;-89
2022/04/20 02:41:31;;;;;;;6.20;5.70;;;8.20;69.20;;;;;;6119990;23;20411;-89
2022/04/20 02:43:58;;;;;;;6.93;6.33;;;8.20;69.50;;;;;;6117811;23;20899;-88
2022/04/20 02:46:27;;;;;;;6.10;5.50;;;8.20;69.50;;;;;;6116580;23;20412;-89
2022/04/20 02:48:54;;;;;;;5.77;5.27;;;8.20;69.60;;;;;;6119957;23;20408;-89
2022/04/20 02:51:20;;;;;;;6.50;5.90;;;8.30;69.70;;;;;;6098044;23;20400;-89
2022/04/20 02:53:47;;;;;;;6.67;6.07;;;8.30;69.50;;;;;;6099565;23;20447;-89
2022/04/20 02:56:14;;;;;;;10.37;6.27;;;8.20;69.50;;;;;;6100173;23;20432;-89
2022/04/20 02:58:41;;;;;;;6.30;5.70;;;8.20;70.00;;;;;;6122189;23;20475;-88
2022/04/20 03:01:08;;;;;;;6.93;5.53;;;8.20;70.50;;;;;;6123558;23;20427;-90
2022/04/20 03:03:36;;;;;;;5.80;5.33;;;8.20;70.70;;;;;;6125846;23;20428;-90
2022/04/20 03:06:03;;;;;;;6.80;6.10;;;8.10;70.90;;;;;;6126736;23;20455;-91
2022/04/20 03:08:30;;;;;;;6.30;5.67;;;8.00;71.20;;;;;;6127393;23;20404;-91
2022/04/20 03:10:56;;;;;;;6.47;5.87;;;7.90;71.20;;;;;;6127087;23;20409;-91
2022/04/20 03:13:23;;;;;;;5.33;4.80;;;7.90;71.50;;;;;;6126822;23;20420;-90
2022/04/20 03:15:50;;;;;;;6.30;5.70;;;7.90;71.70;;;;;;6126938;23;20405;-90
2022/04/20 03:18:17;;;;;;;6.80;6.10;;;7.90;71.80;;;;;;6126640;23;20405;-90
2022/04/20 03:20:45;;;;;;;5.97;5.47;;;7.90;71.80;;;;;;6126054;23;20404;-91
2022/04/20 03:23:14;;;;;;;6.80;6.20;;;7.90;71.70;;;;;;6115459;23;20423;-90
2022/04/20 03:25:41;;;;;;;6.13;5.50;;;7.90;71.40;;;;;;6101109;23;20475;-89
2022/04/20 03:28:08;;;;;;;6.40;5.80;;;7.80;71.40;;;;;;6101716;23;20416;-89
2022/04/20 03:30:37;;;;;;;6.57;6.07;;;7.80;71.60;;;;;;6100309;23;20801;-89
2022/04/20 03:33:05;;;;;;;7.87;6.37;;;7.80;71.80;;;;;;6100554;23;20448;-89
2022/04/20 03:35:32;;;;;;;5.33;4.93;;;7.70;71.60;;;;;;6100444;23;20440;-89
2022/04/20 03:38:00;;;;;;;7.43;6.00;;;7.70;71.80;;;;;;6114286;23;20411;-89
2022/04/20 03:40:27;;;;;;;5.97;5.40;;;7.60;71.90;;;;;;6111438;23;20412;-89
2022/04/20 03:42:54;;;;;;;7.90;7.20;;;7.60;72.50;;;;;;6107110;23;20400;-88
2022/04/20 03:45:20;;;;;;;6.43;5.83;;;7.60;73.30;;;;;;6114082;23;20438;-90
2022/04/20 03:47:47;;;;;;;6.60;6.13;;;7.80;72.00;;;;;;6114543;23;20472;-89
2022/04/20 03:50:14;;;;;;;6.10;5.57;;;7.70;71.70;;;;;;6115176;23;20404;-89
2022/04/20 03:52:41;;;;;;;6.50;6.00;;;7.70;72.10;;;;;;6100432;23;20416;-89
2022/04/20 03:55:09;;;;;;;7.10;6.40;;;7.70;72.00;;;;;;6098947;23;20444;-89
2022/04/20 03:57:36;;;;;;;7.30;6.07;;;7.70;72.10;;;;;;6096633;23;20423;-89
2022/04/20 04:00:04;;;;;;;6.40;5.90;;;7.70;72.00;;;;;;6096507;23;20415;-89
2022/04/20 04:02:31;;;;;;;5.83;5.20;;;7.70;71.90;;;;;;6098867;23;20408;-89
2022/04/20 04:04:58;;;;;;;6.30;5.80;;;7.70;71.90;;;;;;6105085;23;20468;-88
2022/04/20 04:07:24;;;;;;;6.57;5.30;;;7.70;71.80;;;;;;6121054;23;20415;-90
2022/04/20 04:09:51;;;;;;;5.90;5.30;;;7.70;71.80;;;;;;6112088;23;20809;-88
2022/04/20 04:12:24;;;;;;;5.77;5.27;;;7.70;71.80;;;;;;6115169;23;20387;-89
2022/04/20 04:14:51;;;;;;;6.47;5.87;;;7.70;72.30;;;;;;6111775;23;20471;-88
2022/04/20 04:17:18;;;;;;;7.20;5.43;;;7.60;72.80;;;;;;6117812;23;20431;-89
2022/04/20 04:19:45;;;;;;;7.00;5.90;;;7.60;72.90;;;;;;6122869;23;20436;-89
2022/04/20 04:22:11;;;;;;;7.40;5.23;;;7.60;72.80;;;;;;6097717;23;20427;-88
2022/04/20 04:24:40;;;;;;;6.97;6.37;;;7.50;73.00;;;;;;6106964;23;20393;-88
2022/04/20 04:27:09;;;;;;;6.00;5.40;;;7.50;73.20;;;;;;6125585;23;20412;-89
2022/04/20 04:29:38;;;;;;;6.90;5.57;;;7.50;73.40;;;;;;6112337;23;20400;-88
2022/04/20 04:32:05;;;;;;;7.23;6.53;;;7.50;73.70;;;;;;6122348;23;20439;-88
2022/04/20 04:34:32;;;;;;;6.70;6.10;;;7.50;73.80;;;;;;6124897;23;20433;-89
2022/04/20 04:36:59;;;;;;;8.20;6.23;;;7.50;73.90;;;;;;6115532;23;20847;-88
2022/04/20 04:39:28;;;;;;;9.37;6.50;;;7.50;74.20;;;;;;6121817;23;20449;-89
2022/04/20 04:41:59;;;;;;;7.17;6.47;;;7.50;74.40;;;;;;6099342;23;20786;-89
2022/04/20 04:44:27;;;;;;;7.90;7.07;;;7.50;74.50;;;;;;6099144;23;20541;-88
2022/04/20 04:49:40;;;;;;;8.73;7.43;;;7.50;74.50;;;;;;6096391;23;20380;-89
2022/04/20 04:52:11;;;;;;;8.13;6.53;;;7.60;74.20;;;;;;6098578;23;20405;-88
2022/04/20 04:54:39;;;;;;;7.53;6.10;;;7.50;74.10;;;;;;6123641;23;20492;-89
2022/04/20 04:57:06;;;;;;;6.50;5.90;;;7.50;73.80;;;;;;6116775;23;20415;-89
2022/04/20 04:59:33;;;;;;;7.30;6.60;;;7.60;74.30;;;;;;6123152;23;20439;-89
2022/04/20 05:02:01;;;;;;;8.30;5.40;;;7.60;74.50;;;;;;6113391;23;20416;-89
2022/04/20 05:04:29;;;;;;;10.70;6.17;;;7.70;74.60;;;;;;6099710;23;20409;-89
2022/04/20 05:06:58;;;;;;;6.00;5.50;;;7.80;74.20;;;;;;6096633;23;20440;-89
2022/04/20 05:09:25;;;;;;;6.60;5.13;;;8.20;73.70;;;;;;6101021;23;20445;-89
2022/04/20 05:11:51;;;;;;;6.90;6.30;;;8.60;72.20;;;;;;6105269;23;20407;-89
2022/04/20 05:14:19;;;;;;;6.60;6.03;;;9.00;71.00;;;;;;6100508;23;20429;-90
2022/04/20 05:16:46;;;;;;;7.10;6.40;;;9.40;69.10;;;;;;6101077;23;20432;-89
2022/04/20 05:19:14;;;;;;;6.40;5.80;;;9.50;67.60;;;;;;6102567;23;20734;-89
2022/04/20 05:21:41;;;;;;;6.87;5.67;;;9.50;67.10;;;;;;6112216;23;20416;-90
2022/04/20 05:26:43;;;;;;;7.47;6.30;;;9.70;66.70;;;;;;6104489;23;20505;-82
2022/04/20 05:29:11;;;;;;;6.77;6.17;;;9.80;65.80;;;;;;6134617;23;20429;-83
2022/04/20 05:31:38;;;;;;;8.47;6.70;;;9.80;65.70;;;;;;6133148;23;20538;-82
2022/04/20 05:34:04;;;;;;;7.27;6.57;;;9.70;65.70;;;;;;6134617;23;20442;-83
2022/04/20 05:42:12;;;;;;;6.97;6.23;;;9.50;65.90;;;;;;6102459;23;20428;-86
2022/04/20 05:44:38;;;;;;;8.30;5.97;;;9.60;66.00;;;;;;6117269;23;20377;-83
2022/04/20 05:47:06;;;;;;;10.80;6.33;;;9.60;65.90;;;;;;6114266;23;20879;-84
2022/04/20 05:49:33;;;;;;;8.10;5.40;;;9.50;66.00;;;;;;6110501;23;20389;-85
2022/04/20 05:52:01;;;;;;;5.80;5.37;;;9.30;65.20;;;;;;6114252;23;20412;-85
2022/04/20 05:54:27;;;;;;;6.23;5.63;;;9.60;66.00;;;;;;6115221;23;20508;-83
2022/04/20 05:56:54;;;;;;;6.03;5.50;;;9.80;65.00;;;;;;6119654;23;20429;-83
2022/04/20 05:59:21;;;;;;;7.10;5.93;;;9.80;64.20;;;;;;6115184;23;20405;-83
2022/04/20 06:01:48;;;;;;;6.60;6.00;;;9.90;63.00;;;;;;6110894;23;20416;-80
2022/04/20 06:04:15;;;;;;;6.40;5.80;;;9.70;62.70;;;;;;6113767;23;20413;-82
2022/04/20 06:06:45;;;;;;;6.70;5.40;;;9.50;63.30;;;;;;6109827;23;21010;-83
2022/04/20 06:09:13;;;;;;;4.87;4.47;;;9.50;64.10;;;;;;6106531;23;20894;-83
2022/04/20 06:11:40;;;;;;;9.37;5.70;;;10.00;61.70;;;;;;6100941;23;20428;-83
2022/04/20 06:14:07;;;;;;;6.80;6.20;;;10.60;60.50;;;;;;6112777;23;20496;-82
2022/04/20 06:16:34;;;;;;;5.27;4.83;;;11.50;58.70;;;;;;6109338;23;20483;-84
2022/04/20 06:19:00;;;;;;;6.37;5.80;;;12.40;56.90;;;;;;6100062;23;20755;-84
2022/04/20 06:21:27;;;;;;;6.30;5.70;;;12.80;54.70;;;;;;6102738;23;20417;-84
2022/04/20 06:23:54;;;;;;;6.30;5.70;;;13.20;54.00;;;;;;6099470;23;20436;-84
2022/04/20 06:26:22;;;;;;;6.30;5.70;;;13.50;53.80;;;;;;6097281;23;20441;-83
2022/04/20 06:28:49;;;;;;;6.90;6.20;;;14.00;52.20;;;;;;6096416;23;20421;-83
2022/04/20 06:31:15;;;;;;;5.70;5.20;;;14.20;51.40;;;;;;6097416;23;20399;-83
2022/04/20 06:33:42;;;;;;;6.50;5.10;;;13.70;51.40;;;;;;6097891;23;20865;-84
2022/04/20 06:36:09;;;;;;;5.47;5.03;;;13.80;51.90;;;;;;6097107;23;20452;-84
2022/04/20 06:38:35;;;;;;;4.83;4.40;;;14.30;51.10;;;;;;6095499;23;20412;-84
2022/04/20 06:41:02;;;;;;;6.37;5.80;;;14.80;50.20;;;;;;6096203;23;20448;-84
2022/04/20 06:43:30;;;;;;;5.47;4.87;;;15.60;49.10;;;;;;6100935;23;20419;-83
2022/04/20 06:45:57;;;;;;;6.20;5.57;;;15.50;47.90;;;;;;6099582;23;20523;-84
2022/04/20 06:48:25;;;;;;;5.40;4.90;;;15.70;47.50;;;;;;6105133;23;20397;-84
2022/04/20 06:50:51;;;;;;;6.63;6.03;;;16.00;47.40;;;;;;6110884;23;20477;-84
2022/04/20 06:58:50;;;;;;;5.83;5.33;;;16.20;46.60;;;;;;6106814;23;20405;-83
2022/04/20 07:01:17;;;;;;;6.03;5.53;;;16.70;45.50;;;;;;6109726;23;20397;-83
2022/04/20 07:03:44;;;;;;;5.70;5.10;;;17.50;44.70;;;;;;6103730;23;20433;-84
2022/04/20 07:06:11;;;;;;;6.57;5.07;;;18.00;43.40;;;;;;6103267;23;20443;-85
2022/04/20 07:08:38;;;;;;;5.40;5.00;;;16.90;43.50;;;;;;6076400;23;20496;-84
2022/04/20 07:11:06;;;;;;;5.47;4.97;;;16.90;44.60;;;;;;6098228;23;20431;-84
2022/04/20 07:13:33;;;;;;;5.50;5.10;;;17.20;44.20;;;;;;6098963;23;20412;-84
2022/04/20 07:16:01;;;;;;;4.20;3.90;;;18.00;43.20;;;;;;6097566;23;20432;-84
2022/04/20 07:18:27;;;;;;;5.73;5.20;;;18.20;42.80;;;;;;6097622;23;20412;-84
2022/04/20 07:20:54;;;;;;;4.90;4.40;;;18.80;41.80;;;;;;6098593;23;20432;-84
2022/04/20 07:23:21;;;;;;;5.20;4.60;;;19.50;41.20;;;;;;6098320;23;20415;-84
2022/04/20 07:25:48;;;;;;;4.87;4.50;;;20.00;40.00;;;;;;6097332;23;20767;-84
2022/04/20 07:28:15;;;;;;;5.70;5.07;;;19.20;39.90;;;;;;6097956;23;20927;-83
2022/04/20 07:30:41;;;;;;;6.00;4.93;;;19.10;40.00;;;;;;6098212;23;20482;-84
2022/04/20 07:33:09;;;;;;;4.77;4.10;;;18.80;41.80;;;;;;6097866;23;20418;-84
2022/04/20 07:35:36;;;;;;;4.73;4.40;;;19.60;41.30;;;;;;6099596;23;20426;-84
2022/04/20 07:38:04;;;;;;;5.77;4.80;;;19.50;39.90;;;;;;6098615;23;20397;-83
2022/04/20 07:40:32;;;;;;;5.20;4.80;;;18.60;40.70;;;;;;6107293;23;20403;-85
2022/04/20 07:42:58;;;;;;;5.53;4.93;;;19.90;40.20;;;;;;6103945;23;20419;-85
2022/04/20 07:45:26;;;;;;;5.43;4.93;;;20.20;39.20;;;;;;6103315;23;20444;-83
2022/04/20 07:47:56;;;;;;;6.40;5.10;;;20.40;38.20;;;;;;6103740;23;20409;-83
2022/04/20 07:50:25;;;;;;;5.23;4.83;;;19.90;37.60;;;;;;6124263;23;20382;-84
2022/04/20 07:52:54;;;;;;;4.83;4.43;;;18.80;39.80;;;;;;6122230;23;20405;-83
2022/04/20 07:55:23;;;;;;;5.33;4.83;;;18.80;40.00;;;;;;6107555;23;20428;-82
2022/04/20 07:57:50;;;;;;;5.57;5.17;;;18.80;39.60;;;;;;6101763;23;20420;-83
2022/04/20 08:00:18;;;;;;;4.60;4.30;;;17.40;40.80;;;;;;6104965;23;20416;-84
2022/04/20 08:02:46;;;;;;;5.10;4.70;;;16.60;42.20;;;;;;6110258;23;20404;-84
2022/04/20 08:05:15;;;;;;;5.33;4.83;;;16.80;42.80;;;;;;6119003;23;20455;-83
2022/04/20 08:07:44;;;;;;;6.40;5.90;;;16.40;42.80;;;;;;6118449;23;20417;-84
2022/04/20 08:10:12;;;;;;;5.10;4.60;;;15.80;43.80;;;;;;6117848;23;20399;-83
2022/04/20 08:12:41;;;;;;;5.40;4.90;;;16.20;44.30;;;;;;6107355;23;20417;-84
2022/04/20 08:15:09;;;;;;;5.03;4.63;;;17.50;42.30;;;;;;6114016;23;20427;-83
2022/04/20 08:17:37;;;;;;;5.13;4.50;;;18.70;40.70;;;;;;6112661;23;20413;-85
2022/04/20 08:20:05;;;;;;;4.80;4.40;;;20.00;38.60;;;;;;6123495;23;20464;-84
2022/04/20 08:22:32;;;;;;;5.37;4.80;;;20.20;37.20;;;;;;6120958;23;20398;-84
2022/04/20 08:25:05;;;;;;;4.10;3.70;;;19.40;37.80;;;;;;6116138;23;20509;-84
2022/04/20 08:27:32;;;;;;;5.73;4.57;;;20.20;37.10;;;;;;6106652;23;20422;-84
2022/04/20 08:29:59;;;;;;;4.37;4.07;;;20.00;37.10;;;;;;6106448;23;20393;-84
2022/04/20 08:32:26;;;;;;;4.80;4.40;;;20.40;37.00;;;;;;6105226;23;20405;-84
2022/04/20 08:34:53;;;;;;;4.80;4.40;;;19.60;37.30;;;;;;6102887;23;20409;-85
2022/04/20 08:37:19;;;;;;;4.83;4.50;;;19.20;38.60;;;;;;6103066;23;20739;-84
2022/04/20 08:39:46;;;;;;;5.60;5.13;;;20.20;37.80;;;;;;6103410;23;20417;-84
2022/04/20 08:42:16;;;;;;;5.57;5.07;;;20.40;37.50;;;;;;6117614;23;20403;-84
2022/04/20 08:44:47;;;;;;;5.00;4.50;;;20.60;36.80;;;;;;6113881;23;20450;-84
2022/04/20 08:47:20;;;;;;;4.80;4.50;;;20.40;36.60;;;;;;6106726;23;20399;-85
2022/04/20 08:49:49;;;;;;;4.50;4.20;;;20.40;35.80;;;;;;6119266;23;20397;-84
2022/04/20 08:55:01;;;;;;;5.80;4.17;;;20.30;35.60;;;;;;6110300;23;20410;-84
2022/04/20 08:57:32;;;;;;;4.93;4.53;;;21.00;36.20;;;;;;6112915;23;20412;-84
2022/04/20 08:59:59;;;;;;;4.23;3.73;;;21.80;35.00;;;;;;6103693;23;20457;-85
2022/04/20 09:02:28;;;;;;;4.67;4.37;;;22.40;33.70;;;;;;6102801;23;20438;-84
2022/04/20 09:04:55;;;;;;;4.80;4.00;;;21.70;33.80;;;;;;6106490;23;20468;-84
2022/04/20 09:07:21;;;;;;;4.93;4.53;;;20.10;36.20;;;;;;6103144;23;20411;-84
2022/04/20 09:09:48;;;;;;;5.20;4.70;;;19.50;36.80;;;;;;6108505;23;20411;-84
2022/04/20 09:12:17;;;;;;;4.83;3.80;;;19.70;36.60;;;;;;6119847;23;20396;-83
2022/04/20 09:14:48;;;;;;;4.30;4.00;;;20.70;34.90;;;;;;6105435;23;20410;-85
2022/04/20 09:17:17;;;;;;;6.07;3.77;;;21.10;34.50;;;;;;6103233;23;20398;-85
2022/04/20 09:19:45;;;;;;;3.50;3.20;;;21.10;34.40;;;;;;6103367;23;20408;-86
2022/04/20 09:22:20;;;;;;;3.70;3.40;;;21.60;33.90;;;;;;6102795;23;20416;-84
2022/04/20 09:25:04;;;;;;;4.30;3.93;;;22.20;32.90;;;;;;6103159;23;20472;-84
2022/04/20 09:27:31;;;;;;;4.80;4.00;;;21.80;32.50;;;;;;6107127;23;20414;-84
2022/04/20 09:30:00;;;;;;;4.57;4.20;;;22.20;32.20;;;;;;6109481;23;20405;-85
2022/04/20 09:32:35;;;;;;;6.67;3.70;;;20.80;33.90;;;;;;6104424;23;20408;-85
2022/04/20 09:35:05;;;;;;;4.17;3.77;;;21.40;33.80;;;;;;6102254;23;20419;-86
2022/04/20 09:37:32;;;;;;;4.43;4.03;;;21.70;32.30;;;;;;6103381;23;20417;-84
2022/04/20 09:39:59;;;;;;;3.80;3.40;;;22.10;32.00;;;;;;6103305;23;20431;-84
2022/04/20 09:42:26;;;;;;;3.90;3.50;;;22.40;31.40;;;;;;6102587;23;20401;-85
2022/04/20 09:44:54;;;;;;;4.80;3.97;;;22.50;30.00;;;;;;6106074;23;20448;-85
2022/04/20 09:50:13;;;;;;;3.30;3.10;;;21.40;32.00;;;;;;6113423;23;20755;-84
2022/04/20 09:52:42;;;;;;;3.80;3.50;;;20.60;30.70;;;;;;6107671;23;20434;-83
2022/04/20 09:55:12;;;;;;;3.30;3.10;;;20.80;30.40;;;;;;6102798;23;20425;-84
2022/04/20 09:57:39;;;;;;;3.80;3.50;;;22.30;31.10;;;;;;6109406;23;20393;-83
2022/04/20 10:00:09;;;;;;;3.87;3.57;;;22.70;30.90;;;;;;6118967;23;20397;-84
2022/04/20 10:02:47;;;;;;;4.47;4.07;;;24.10;29.80;;;;;;6107674;23;20394;-83
2022/04/20 10:05:14;;;;;;;4.17;3.77;;;22.80;30.30;;;;;;6108268;23;20483;-85
2022/04/20 10:07:41;;;;;;;4.43;4.13;;;22.40;31.20;;;;;;6120885;23;20399;-85
2022/04/20 10:10:09;;;;;;;4.77;4.27;;;22.60;30.90;;;;;;6119275;23;20413;-85
2022/04/20 10:12:38;;;;;;;5.70;4.20;;;22.30;30.90;;;;;;6108415;23;20421;-85
2022/04/20 10:17:56;;;;;;;4.67;3.60;;;22.70;30.80;;;;;;6112189;23;20377;-85
2022/04/20 10:20:26;;;;;;;3.90;3.60;;;23.70;31.00;;;;;;6118282;23;20389;-85
2022/04/20 10:22:53;;;;;;;4.63;4.23;;;24.60;29.00;;;;;;6118234;23;20430;-84
2022/04/20 10:25:21;;;;;;;6.20;5.50;;;23.90;28.90;;;;;;6114029;23;20485;-84
2022/04/20 10:28:09;;;;;;;5.53;4.00;;;24.00;30.40;;;;;;6116090;23;20462;-86
2022/04/20 10:30:46;;;;;;;4.57;4.23;;;24.20;29.00;;;;;;6123378;23;20384;-88
2022/04/20 10:33:19;;;;;;;4.30;3.90;;;23.60;29.40;;;;;;6124244;23;20490;-84
2022/04/20 10:35:59;;;;;;;3.33;3.13;;;24.90;29.30;;;;;;6123640;23;20512;-83
2022/04/20 10:38:27;;;;;;;3.73;3.30;;;25.10;28.40;;;;;;6123356;23;20391;-83
2022/04/20 10:41:03;;;;;;;4.27;3.77;;;23.70;28.50;;;;;;6123324;23;20458;-83
2022/04/20 10:43:31;;;;;;;3.77;3.47;;;23.20;28.90;;;;;;6119117;23;20428;-84
2022/04/20 10:46:22;;;;;;;4.30;3.20;;;24.00;28.70;;;;;;6114056;23;20454;-85
2022/04/20 10:48:58;;;;;;;3.47;3.17;;;24.70;28.20;;;;;;6085696;23;20467;-85
2022/04/20 10:51:36;;;;;;;3.57;3.10;;;26.40;27.20;;;;;;6117129;23;20389;-83
2022/04/20 10:54:26;;;;;;;7.20;3.13;;;27.00;26.20;;;;;;6113502;23;20852;-83
2022/04/20 10:57:11;;;;;;;4.00;3.60;;;25.90;26.90;;;;;;6112973;23;20428;-85
2022/04/20 10:59:41;;;;;;;3.87;3.30;;;25.80;26.20;;;;;;6108263;23;20420;-83
2022/04/20 11:02:11;;;;;;;4.73;3.17;;;25.70;26.50;;;;;;6109846;23;20400;-84
2022/04/20 11:04:41;;;;;;;3.43;3.20;;;24.90;27.10;;;;;;6106589;23;20400;-82
2022/04/20 11:07:20;;;;;;;3.33;3.13;;;25.10;27.10;;;;;;6112430;23;20412;-81
2022/04/20 11:09:57;;;;;;;4.73;3.53;;;25.40;27.10;;;;;;6119850;23;20452;-82
2022/04/20 11:18:43;;;;;;;3.27;2.97;;;26.30;26.00;;;;;;6101274;23;20376;-83
2022/04/20 11:21:19;;;;;;;3.70;3.40;;;26.20;26.10;;;;;;6099945;23;20393;-83
2022/04/20 11:23:51;;;;;;;3.80;3.50;;;26.30;26.10;;;;;;6103149;23;20393;-85
2022/04/20 11:26:20;;;;;;;3.37;3.17;;;27.70;25.80;;;;;;6104477;23;20520;-82
2022/04/20 11:28:48;;;;;;;5.30;3.40;;;25.80;25.00;;;;;;6103905;23;20516;-82
2022/04/20 11:31:15;;;;;;;3.20;2.90;;;25.70;25.60;;;;;;6105049;23;20408;-82
2022/04/20 11:33:42;;;;;;;3.67;3.37;;;26.30;25.50;;;;;;6106956;23;20442;-83
2022/04/20 11:36:12;;;;;;;3.83;3.53;;;25.10;26.60;;;;;;6106783;23;20424;-83
2022/04/20 11:38:41;;;;;;;4.80;4.50;;;24.20;27.50;;;;;;6106954;23;20490;-83
2022/04/20 11:41:09;;;;;;;4.70;4.30;;;24.50;27.50;;;;;;6109952;23;20424;-84
2022/04/20 11:43:36;;;;;;;3.90;3.50;;;24.50;27.30;;;;;;6120474;23;20407;-83
2022/04/20 11:46:03;;;;;;;4.20;3.80;;;24.90;27.20;;;;;;6123960;23;20515;-80
2022/04/20 11:48:30;;;;;;;4.20;3.90;;;25.70;26.30;;;;;;6108010;23;20442;-82
2022/04/20 11:50:57;;;;;;;4.10;3.70;;;25.60;25.80;;;;;;6108888;23;20408;-81
2022/04/20 11:53:32;;;;;;;4.00;3.70;;;27.10;25.20;;;;;;6115878;23;20440;-82
2022/04/20 11:56:00;;;;;;;4.00;3.60;;;27.80;24.80;;;;;;6115236;23;20452;-82
2022/04/20 11:58:27;;;;;;;3.33;3.03;;;28.40;24.50;;;;;;6105060;23;20891;-82
2022/04/20 12:01:01;;;;;;;4.47;4.07;;;27.80;25.40;;;;;;6106757;23;20404;-82
2022/04/20 12:03:32;;;;;;;4.20;3.80;;;27.60;25.40;;;;;;6107185;23;20414;-85
2022/04/20 12:06:03;;;;;;;5.20;4.17;;;28.30;24.20;;;;;;6117774;23;20500;-86
2022/04/20 12:08:32;;;;;;;4.40;3.97;;;28.10;24.70;;;;;;6114716;23;20472;-83
2022/04/20 12:11:02;;;;;;;4.07;3.30;;;28.80;23.70;;;;;;6111044;23;20409;-84
2022/04/20 12:13:30;;;;;;;3.83;3.53;;;27.50;24.40;;;;;;6113286;23;20381;-84
2022/04/20 12:16:04;;;;;;;4.03;3.73;;;26.50;25.10;;;;;;6110266;23;20448;-83
2022/04/20 12:18:33;;;;;;;3.13;2.93;;;26.50;25.40;;;;;;6110780;23;20433;-84
2022/04/20 12:21:00;;;;;;;4.63;4.33;;;26.00;26.00;;;;;;6111139;23;20420;-84
2022/04/20 12:23:33;;;;;;;4.10;3.80;;;24.80;26.70;;;;;;6111508;23;20415;-83
2022/04/20 12:26:05;;;;;;;4.20;3.90;;;24.90;26.20;;;;;;6121333;23;20469;-81
2022/04/20 12:28:45;;;;;;;3.80;3.50;;;25.60;25.60;;;;;;6119920;23;20408;-82
2022/04/20 12:31:13;;;;;;;3.27;2.97;;;27.20;24.80;;;;;;6102493;23;20452;-83
2022/04/20 12:33:41;;;;;;;3.70;3.40;;;27.10;24.40;;;;;;6099992;23;20452;-83
2022/04/20 12:36:10;;;;;;;3.57;3.37;;;26.70;24.70;;;;;;6106228;23;20424;-82
2022/04/20 12:38:45;;;;;;;4.57;4.20;;;26.80;24.30;;;;;;6117163;23;20412;-83
2022/04/20 12:41:36;;;;;;;3.70;3.40;;;26.20;25.00;;;;;;6108172;23;20419;-83
2022/04/20 12:44:05;;;;;;;4.10;3.80;;;26.60;25.60;;;;;;6116071;23;20428;-83
2022/04/20 12:46:35;;;;;;;3.73;3.43;;;27.70;24.50;;;;;;6111041;23;20447;-81
2022/04/20 12:49:06;;;;;;;3.70;3.40;;;27.70;24.30;;;;;;6103555;23;20403;-84
2022/04/20 12:51:33;;;;;;;3.80;3.50;;;27.50;24.40;;;;;;6113402;23;20457;-82
2022/04/20 12:53:59;;;;;;;4.13;3.73;;;26.80;24.80;;;;;;6114134;23;20416;-82
2022/04/20 13:02:05;;;;;;;4.17;3.80;;;27.60;23.50;;;;;;6114029;23;20387;-81
2022/04/20 13:04:32;;;;;;;3.83;3.33;;;26.90;24.20;;;;;;6116381;23;20411;-82
2022/04/20 13:06:59;;;;;;;3.53;3.30;;;28.20;24.00;;;;;;6113725;23;20568;-82
2022/04/20 13:09:26;;;;;;;3.77;3.47;;;27.20;23.30;;;;;;6113068;23;20392;-83
2022/04/20 13:11:53;;;;;;;3.90;3.50;;;26.90;23.80;;;;;;6112522;23;20404;-82
2022/04/20 13:14:21;;;;;;;3.00;2.70;;;26.80;23.90;;;;;;6109247;23;20413;-84
2022/04/20 13:16:48;;;;;;;6.03;3.70;;;25.90;24.70;;;;;;6109048;23;20729;-82
2022/04/20 13:19:15;;;;;;;3.27;3.00;;;25.30;24.70;;;;;;6110632;23;20444;-82
2022/04/20 13:21:42;;;;;;;6.40;3.87;;;25.20;25.40;;;;;;6108812;23;20832;-82
2022/04/20 13:24:09;;;;;;;3.57;3.30;;;25.20;25.10;;;;;;6113179;23;20460;-81
2022/04/20 13:29:23;;;;;;;4.20;3.60;;;25.50;25.00;;;;;;6110103;23;20442;-83
2022/04/20 13:31:50;;;;;;;3.23;3.00;;;27.00;24.40;;;;;;6114105;23;20380;-82
2022/04/20 13:34:28;;;;;;;2.83;2.63;;;27.10;24.00;;;;;;6114102;23;20407;-82
2022/04/20 13:36:56;;;;;;;3.43;3.13;;;26.70;24.00;;;;;;6117705;23;20428;-80
2022/04/20 13:39:22;;;;;;;4.47;3.80;;;26.40;23.70;;;;;;6110084;23;20419;-81